createdAt,value
2018-08-24T00:01:58.951Z,78.39
2018-08-24T00:04:26.674Z,78.62
2018-08-24T00:06:54.315Z,79.08
2018-08-24T00:09:25.944Z,79.79
2018-08-24T00:11:53.632Z,77.59
2018-08-24T00:14:21.301Z,76.24
2018-08-24T00:16:49.055Z,77.13
2018-08-24T00:19:17.393Z,77.57
2018-08-24T00:21:45.926Z,78.85
2018-08-24T00:24:14.198Z,78.36
2018-08-24T00:26:41.867Z,77.29
2018-08-24T00:29:09.729Z,76.67
2018-08-24T00:31:38.024Z,77.72
2018-08-24T00:34:05.864Z,79.14
2018-08-24T00:36:33.529Z,77.66
2018-08-24T00:39:01.204Z,80.05
2018-08-24T00:41:28.932Z,77.92
2018-08-24T00:43:56.622Z,78.38
2018-08-24T00:46:24.290Z,77.59
2018-08-24T00:48:51.988Z,77.45
2018-08-24T00:51:19.656Z,77.71
2018-08-24T00:53:47.309Z,78.36
2018-08-24T00:56:15.003Z,77.42
2018-08-24T00:58:42.684Z,78.75
2018-08-24T01:01:10.539Z,77.80
2018-08-24T01:03:38.674Z,78.72
2018-08-24T01:06:06.612Z,78.74
2018-08-24T01:08:34.477Z,78.35
2018-08-24T01:11:02.183Z,78.88
2018-08-24T01:13:29.847Z,79.24
2018-08-24T01:15:58.762Z,79.81
2018-08-24T01:18:32.069Z,79.32
2018-08-24T01:20:59.878Z,79.36
2018-08-24T01:23:29.046Z,77.92
2018-08-24T01:25:56.779Z,78.17
2018-08-24T01:28:25.937Z,79.89
2018-08-24T01:30:53.761Z,78.74
2018-08-24T01:33:21.420Z,79.19
2018-08-24T01:35:49.118Z,79.02
2018-08-24T01:38:16.822Z,77.60
2018-08-24T01:40:44.482Z,77.69
2018-08-24T01:43:12.166Z,78.78
2018-08-24T01:45:39.843Z,78.36
2018-08-24T01:48:08.543Z,78.55
2018-08-24T01:50:36.285Z,78.42
2018-08-24T01:53:04.065Z,79.67
2018-08-24T01:55:31.744Z,79.10
2018-08-24T01:57:59.415Z,78.34
2018-08-24T02:00:27.070Z,78.11
2018-08-24T02:02:54.728Z,80.00
2018-08-24T02:05:22.467Z,78.65
2018-08-24T02:07:50.146Z,79.05
2018-08-24T02:10:23.481Z,79.74
2018-08-24T02:12:56.628Z,79.11
2018-08-24T02:15:24.362Z,78.25
2018-08-24T02:17:57.605Z,78.92
2018-08-24T02:20:30.881Z,78.53
2018-08-24T02:23:00.658Z,79.60
2018-08-24T02:25:28.341Z,78.91
2018-08-24T02:27:56.180Z,78.88
2018-08-24T02:30:23.850Z,78.06
2018-08-24T02:32:51.523Z,78.42
2018-08-24T02:35:19.936Z,80.26
2018-08-24T02:37:49.865Z,80.06
2018-08-24T02:40:17.591Z,79.30
2018-08-24T02:42:46.101Z,79.60
2018-08-24T02:45:13.831Z,78.44
2018-08-24T02:47:41.512Z,79.19
2018-08-24T02:50:09.236Z,78.91
2018-08-24T02:52:36.941Z,79.17
2018-08-24T02:55:04.598Z,79.87
2018-08-24T02:57:32.422Z,80.88
2018-08-24T03:00:00.142Z,78.93
2018-08-24T03:02:28.370Z,79.86
2018-08-24T03:04:56.041Z,79.81
2018-08-24T03:07:23.980Z,80.66
2018-08-24T03:09:51.688Z,80.41
2018-08-24T03:12:19.350Z,79.29
2018-08-24T03:14:47.061Z,79.70
2018-08-24T03:17:20.269Z,80.59
2018-08-24T03:19:48.066Z,79.08
2018-08-24T03:22:15.809Z,79.47
2018-08-24T03:24:43.677Z,80.89
2018-08-24T03:27:11.382Z,80.29
2018-08-24T03:29:39.042Z,80.86
2018-08-24T03:32:06.782Z,79.72
2018-08-24T03:34:34.501Z,80.14
2018-08-24T03:37:02.170Z,80.66
2018-08-24T03:39:29.860Z,79.45
2018-08-24T03:41:57.538Z,81.79
2018-08-24T03:44:25.206Z,81.09
2018-08-24T03:46:52.960Z,81.02
2018-08-24T03:49:20.654Z,81.66
2018-08-24T03:51:48.309Z,80.24
2018-08-24T03:54:21.297Z,82.44
2018-08-24T03:56:59.151Z,83.54
2018-08-24T03:59:27.144Z,82.29
2018-08-24T04:01:55.601Z,81.00
2018-08-24T04:04:23.549Z,79.82
2018-08-24T04:06:51.205Z,82.21
2018-08-24T04:09:18.910Z,81.78
2018-08-24T04:11:46.601Z,81.67
2018-08-24T04:14:14.273Z,79.96
2018-08-24T04:16:47.606Z,81.60
2018-08-24T04:19:24.318Z,81.23
2018-08-24T04:21:52.065Z,81.40
2018-08-24T04:24:19.783Z,82.69
2018-08-24T04:26:47.441Z,82.99
2018-08-24T04:29:15.108Z,82.08
2018-08-24T04:31:42.817Z,82.83
2018-08-24T04:34:10.467Z,82.66
2018-08-24T04:36:38.210Z,81.51
2018-08-24T04:39:07.812Z,80.92
2018-08-24T04:41:35.600Z,81.79
2018-08-24T04:44:03.310Z,80.89
2018-08-24T04:46:31.245Z,81.98
2018-08-24T04:48:58.934Z,82.19
2018-08-24T04:51:27.007Z,82.50
2018-08-24T04:53:54.665Z,82.28
2018-08-24T04:56:22.337Z,82.67
2018-08-24T04:58:49.999Z,81.98
2018-08-24T05:01:17.785Z,81.01
2018-08-24T05:03:45.464Z,81.61
2018-08-24T05:06:13.106Z,80.69
2018-08-24T05:08:40.772Z,82.68
2018-08-24T05:11:08.545Z,81.98
2018-08-24T05:13:36.239Z,81.82
2018-08-24T05:16:03.949Z,82.58
2018-08-24T05:18:31.639Z,81.26
2018-08-24T05:20:59.354Z,81.57
2018-08-24T05:23:26.989Z,81.76
2018-08-24T05:25:54.664Z,81.27
2018-08-24T05:28:22.410Z,81.62
2018-08-24T05:30:50.118Z,81.32
2018-08-24T05:33:17.795Z,83.18
2018-08-24T05:35:45.601Z,81.76
2018-08-24T05:38:13.193Z,82.30
2018-08-24T05:40:40.912Z,81.50
2018-08-24T05:43:08.677Z,81.31
2018-08-24T05:45:36.364Z,81.80
2018-08-24T05:48:04.105Z,82.36
2018-08-24T05:50:32.268Z,82.00
2018-08-24T05:52:59.943Z,81.68
2018-08-24T05:55:27.673Z,82.86
2018-08-24T05:57:55.442Z,81.28
2018-08-24T06:00:28.648Z,82.74
2018-08-24T06:02:56.352Z,82.97
2018-08-24T06:05:24.080Z,82.13
2018-08-24T06:07:51.935Z,82.31
2018-08-24T06:10:19.757Z,81.43
2018-08-24T06:12:47.468Z,82.71
2018-08-24T06:15:15.509Z,82.74
2018-08-24T06:17:49.253Z,81.66
2018-08-24T06:20:17.280Z,81.58
2018-08-24T06:22:44.952Z,82.95
2018-08-24T06:25:13.218Z,84.07
2018-08-24T06:27:41.095Z,82.83
2018-08-24T06:30:09.022Z,82.59
2018-08-24T06:32:36.697Z,82.57
2018-08-24T06:35:04.478Z,83.58
2018-08-24T06:37:32.279Z,83.65
2018-08-24T06:39:59.953Z,82.44
2018-08-24T06:42:27.661Z,82.08
2018-08-24T06:44:55.428Z,82.34
2018-08-24T06:47:23.215Z,83.10
2018-08-24T06:49:50.849Z,83.68
2018-08-24T06:52:18.547Z,82.45
2018-08-24T06:54:46.266Z,83.87
2018-08-24T06:57:14.099Z,84.06
2018-08-24T06:59:41.850Z,83.29
2018-08-24T07:02:09.546Z,82.62
2018-08-24T07:04:37.260Z,84.48
2018-08-24T07:07:05.005Z,84.70
2018-08-24T07:09:32.922Z,84.30
2018-08-24T07:12:00.608Z,84.03
2018-08-24T07:14:28.306Z,84.00
2018-08-24T07:16:59.993Z,84.61
2018-08-24T07:19:28.148Z,83.30
2018-08-24T07:21:56.012Z,83.02
2018-08-24T07:24:24.202Z,82.70
2018-08-24T07:26:51.897Z,83.18
2018-08-24T07:29:19.682Z,83.72
2018-08-24T07:31:47.361Z,83.28
2018-08-24T07:34:15.057Z,83.66
2018-08-24T07:36:42.777Z,82.99
2018-08-24T07:39:12.536Z,83.69
2018-08-24T07:41:40.272Z,82.75
2018-08-24T07:44:08.183Z,82.79
2018-08-24T07:46:35.889Z,83.82
2018-08-24T07:49:04.172Z,83.50
2018-08-24T07:51:31.901Z,83.42
2018-08-24T07:53:59.629Z,82.62
2018-08-24T07:56:29.069Z,82.56
2018-08-24T07:58:57.425Z,81.80
2018-08-24T08:01:25.380Z,82.95
2018-08-24T08:03:53.091Z,82.44
2018-08-24T08:06:20.772Z,83.12
2018-08-24T08:08:48.837Z,83.35
2018-08-24T08:11:16.529Z,84.91
2018-08-24T08:13:44.273Z,83.38
2018-08-24T08:16:11.962Z,82.49
2018-08-24T08:18:39.709Z,84.19
2018-08-24T08:21:07.477Z,83.03
2018-08-24T08:23:35.155Z,81.94
2018-08-24T08:26:02.910Z,83.17
2018-08-24T08:28:30.574Z,82.38
2018-08-24T08:30:58.664Z,82.96
2018-08-24T08:33:26.351Z,83.21
2018-08-24T08:35:54.022Z,82.94
2018-08-24T08:38:21.704Z,83.03
2018-08-24T08:40:49.388Z,82.57
2018-08-24T08:43:17.213Z,83.48
2018-08-24T08:45:45.028Z,82.41
2018-08-24T08:48:12.794Z,84.04
2018-08-24T08:50:40.498Z,82.53
2018-08-24T08:53:08.287Z,84.78
2018-08-24T08:55:35.965Z,83.96
2018-08-24T08:58:03.668Z,84.45
2018-08-24T09:00:31.524Z,82.81
2018-08-24T09:02:59.224Z,84.02
2018-08-24T09:05:26.933Z,83.41
2018-08-24T09:07:54.688Z,84.09
2018-08-24T09:10:22.404Z,84.58
2018-08-24T09:12:50.100Z,84.71
2018-08-24T09:15:17.797Z,83.05
2018-08-24T09:17:51.157Z,83.91
2018-08-24T09:20:24.441Z,82.88
2018-08-24T09:22:57.717Z,84.20
2018-08-24T09:25:30.879Z,83.31
2018-08-24T09:28:04.070Z,84.55
2018-08-24T09:30:35.379Z,84.46
2018-08-24T09:33:03.146Z,84.18
2018-08-24T09:35:30.745Z,83.69
2018-08-24T09:37:58.442Z,83.77
2018-08-24T09:40:31.674Z,84.25
2018-08-24T09:43:03.853Z,83.69
2018-08-24T09:45:31.584Z,83.76
2018-08-24T09:48:04.624Z,83.25
2018-08-24T09:50:37.748Z,82.85
2018-08-24T09:53:10.922Z,82.90
2018-08-24T09:55:38.652Z,82.57
2018-08-24T09:58:06.360Z,82.57
2018-08-24T10:00:39.818Z,83.31
2018-08-24T10:03:13.160Z,82.53
2018-08-24T10:05:46.427Z,82.46
2018-08-24T10:08:19.701Z,82.93
2018-08-24T10:10:47.742Z,82.76
2018-08-24T10:13:15.429Z,83.81
2018-08-24T10:15:43.105Z,83.21
2018-08-24T10:18:10.925Z,82.76
2018-08-24T10:20:38.621Z,82.66
2018-08-24T10:23:06.503Z,82.34
2018-08-24T10:25:34.256Z,83.59
2018-08-24T10:28:01.960Z,82.37
2018-08-24T10:30:29.700Z,82.54
2018-08-24T10:32:57.482Z,82.15
2018-08-24T10:35:25.179Z,81.80
2018-08-24T10:37:52.882Z,82.48
2018-08-24T10:40:20.672Z,81.91
2018-08-24T10:42:48.357Z,81.98
2018-08-24T10:45:16.055Z,82.11
2018-08-24T10:47:43.737Z,81.89
2018-08-24T10:50:11.447Z,83.04
2018-08-24T10:52:39.128Z,83.56
2018-08-24T10:55:06.979Z,83.62
2018-08-24T10:57:34.908Z,82.55
2018-08-24T11:00:02.618Z,82.62
2018-08-24T11:02:30.492Z,83.06
2018-08-24T11:04:58.214Z,82.72
2018-08-24T11:07:26.039Z,82.46
2018-08-24T11:09:53.657Z,83.39
2018-08-24T11:12:21.426Z,83.02
2018-08-24T11:14:49.140Z,82.29
2018-08-24T11:17:16.882Z,83.08
2018-08-24T11:19:44.577Z,82.81
2018-08-24T11:22:12.276Z,83.00
2018-08-24T11:24:40.159Z,82.18
2018-08-24T11:27:07.908Z,82.92
2018-08-24T11:29:35.601Z,82.04
2018-08-24T11:32:03.309Z,81.88
2018-08-24T11:34:31.006Z,81.62
2018-08-24T11:36:58.726Z,81.89
2018-08-24T11:39:26.421Z,81.79
2018-08-24T11:41:54.220Z,81.67
2018-08-24T11:44:21.852Z,81.30
2018-08-24T11:46:49.596Z,81.56
2018-08-24T11:49:17.320Z,81.25
2018-08-24T11:51:45.017Z,81.33
2018-08-24T11:54:12.811Z,81.65
2018-08-24T11:56:40.454Z,81.57
2018-08-24T11:59:08.205Z,81.22
2018-08-24T12:01:35.938Z,81.31
2018-08-24T12:04:03.629Z,81.13
2018-08-24T12:06:31.347Z,81.25
2018-08-24T12:08:59.062Z,81.42
2018-08-24T12:11:26.793Z,81.04
2018-08-24T12:13:54.576Z,81.23
2018-08-24T12:16:22.262Z,81.68
2018-08-24T12:18:50.018Z,81.25
2018-08-24T12:21:17.780Z,81.15
2018-08-24T12:23:45.619Z,81.33
2018-08-24T12:26:13.285Z,81.03
2018-08-24T12:28:40.981Z,81.08
2018-08-24T12:31:08.662Z,81.03
2018-08-24T12:33:36.443Z,81.07
2018-08-24T12:36:08.990Z,81.05
2018-08-24T12:38:36.699Z,81.17
2018-08-24T12:41:04.456Z,81.02
2018-08-24T12:43:32.198Z,80.83
2018-08-24T12:45:59.869Z,80.84
2018-08-24T12:48:27.580Z,80.64
2018-08-24T12:50:55.329Z,80.96
2018-08-24T12:53:23.032Z,81.38
2018-08-24T12:55:50.783Z,80.46
2018-08-24T12:58:18.500Z,80.59
2018-08-24T13:00:46.194Z,80.48
2018-08-24T13:03:13.934Z,80.67
2018-08-24T13:05:41.595Z,80.42
2018-08-24T13:08:09.492Z,80.22
2018-08-24T13:10:37.228Z,80.19
2018-08-24T13:13:05.023Z,80.24
2018-08-24T13:15:32.738Z,80.24
2018-08-24T13:18:00.419Z,80.00
2018-08-24T13:20:28.124Z,80.00
2018-08-24T13:22:55.816Z,80.05
2018-08-24T13:25:23.537Z,80.18
2018-08-24T13:27:57.798Z,80.03
2018-08-24T13:30:25.513Z,80.20
2018-08-24T13:32:53.240Z,81.60
2018-08-24T13:35:20.943Z,80.86
2018-08-24T13:37:48.673Z,80.35
2018-08-24T13:40:16.372Z,80.39
2018-08-24T13:42:44.412Z,80.39
2018-08-24T13:45:12.223Z,80.21
2018-08-24T13:47:39.925Z,81.01
2018-08-24T13:50:07.822Z,81.84
2018-08-24T13:52:35.632Z,80.86
2018-08-24T13:55:03.598Z,80.74
2018-08-24T13:57:31.582Z,80.49
2018-08-24T13:59:59.450Z,80.27
2018-08-24T14:02:27.099Z,80.59
2018-08-24T14:04:54.998Z,81.86
2018-08-24T14:07:22.818Z,82.96
2018-08-24T14:09:50.509Z,81.58
2018-08-24T14:12:18.385Z,81.02
2018-08-24T14:14:46.108Z,80.80
2018-08-24T14:17:13.855Z,80.80
2018-08-24T14:19:41.812Z,80.54
2018-08-24T14:22:09.478Z,80.66
2018-08-24T14:24:37.254Z,80.56
2018-08-24T14:27:05.174Z,80.10
2018-08-24T14:29:32.861Z,80.39
2018-08-24T14:32:00.686Z,80.31
2018-08-24T14:34:28.557Z,80.50
2018-08-24T14:36:56.334Z,80.60
2018-08-24T14:39:24.112Z,80.30
2018-08-24T14:41:52.017Z,80.58
2018-08-24T14:44:19.716Z,80.84
2018-08-24T14:46:47.437Z,80.32
2018-08-24T14:49:15.328Z,80.44
2018-08-24T14:51:43.195Z,80.17
2018-08-24T14:54:11.009Z,79.98
2018-08-24T14:56:38.903Z,80.51
2018-08-24T14:59:06.574Z,80.09
2018-08-24T15:01:34.253Z,80.20
2018-08-24T15:04:02.114Z,79.90
2018-08-24T15:06:29.856Z,79.77
2018-08-24T15:08:57.514Z,80.09
2018-08-24T15:11:25.513Z,80.33
2018-08-24T15:13:53.319Z,80.25
2018-08-24T15:16:21.044Z,80.21
2018-08-24T15:18:48.989Z,79.82
2018-08-24T15:21:16.691Z,79.69
2018-08-24T15:23:44.654Z,79.79
2018-08-24T15:26:12.522Z,79.48
2018-08-24T15:28:40.323Z,79.77
2018-08-24T15:31:07.996Z,80.20
2018-08-24T15:33:35.882Z,79.69
2018-08-24T15:36:03.615Z,79.77
2018-08-24T15:38:31.306Z,80.52
2018-08-24T15:40:59.207Z,80.08
2018-08-24T15:43:26.898Z,81.63
2018-08-24T15:45:54.642Z,80.95
2018-08-24T15:48:22.477Z,81.77
2018-08-24T15:50:50.234Z,80.44
2018-08-24T15:53:17.938Z,81.60
2018-08-24T15:55:45.830Z,82.24
2018-08-24T15:58:13.552Z,81.34
2018-08-24T16:00:41.257Z,80.71
2018-08-24T16:03:09.137Z,80.62
2018-08-24T16:05:36.902Z,80.63
2018-08-24T16:08:04.813Z,80.35
2018-08-24T16:10:32.656Z,80.63
2018-08-24T16:13:00.370Z,80.47
2018-08-24T16:15:28.079Z,80.60
2018-08-24T16:18:01.650Z,80.22
2018-08-24T16:20:29.348Z,80.35
2018-08-24T16:22:57.053Z,80.26
2018-08-24T16:25:25.022Z,80.19
2018-08-24T16:27:52.719Z,80.40
2018-08-24T16:30:20.495Z,81.11
2018-08-24T16:35:17.482Z,80.83
2018-08-24T16:37:45.175Z,80.52
2018-08-24T16:40:12.878Z,80.62
2018-08-24T16:42:40.691Z,81.96
2018-08-24T16:45:08.398Z,81.20
2018-08-24T16:47:36.098Z,80.90
2018-08-24T16:50:04.033Z,81.39
2018-08-24T16:52:31.776Z,81.23
2018-08-24T16:54:59.465Z,81.02
2018-08-24T16:57:27.299Z,80.78
2018-08-24T16:59:55.030Z,80.99
2018-08-24T17:02:22.750Z,81.10
2018-08-24T17:04:50.603Z,80.80
2018-08-24T17:07:18.287Z,80.82
2018-08-24T17:09:45.984Z,80.87
2018-08-24T17:12:13.801Z,80.98
2018-08-24T17:14:41.525Z,81.20
2018-08-24T17:17:09.235Z,81.00
2018-08-24T17:19:37.051Z,80.98
2018-08-24T17:22:04.759Z,80.92
2018-08-24T17:24:32.451Z,81.05
2018-08-24T17:27:00.346Z,80.85
2018-08-24T17:29:28.103Z,81.02
2018-08-24T17:31:55.809Z,80.95
2018-08-24T17:34:23.814Z,80.80
2018-08-24T17:36:51.531Z,81.21
2018-08-24T17:39:19.244Z,81.05
2018-08-24T17:41:47.089Z,80.93
2018-08-24T17:44:14.798Z,81.22
2018-08-24T17:46:42.542Z,81.79
2018-08-24T17:49:10.441Z,81.96
2018-08-24T17:51:38.192Z,81.92
2018-08-24T17:54:06.037Z,81.81
2018-08-24T17:56:33.902Z,81.51
2018-08-24T17:59:01.640Z,82.37
2018-08-24T18:01:29.348Z,82.14
2018-08-24T18:03:57.189Z,81.69
2018-08-24T18:06:24.894Z,81.87
2018-08-24T18:08:52.596Z,82.94
2018-08-24T18:11:20.450Z,84.32
2018-08-24T18:13:48.166Z,83.49
2018-08-24T18:16:15.921Z,82.56
2018-08-24T18:18:43.793Z,82.60
2018-08-24T18:21:11.505Z,82.56
2018-08-24T18:23:39.404Z,82.14
2018-08-24T18:26:08.208Z,81.86
2018-08-24T18:28:35.922Z,81.83
2018-08-24T18:31:03.641Z,81.90
2018-08-24T18:33:31.496Z,81.83
2018-08-24T18:35:59.201Z,81.72
2018-08-24T18:38:26.896Z,81.35
2018-08-24T18:40:54.807Z,81.66
2018-08-24T18:43:22.591Z,81.50
2018-08-24T18:45:50.381Z,81.40
2018-08-24T18:48:18.170Z,81.33
2018-08-24T18:50:45.950Z,81.40
2018-08-24T18:53:13.706Z,81.26
2018-08-24T18:55:42.202Z,81.30
2018-08-24T18:58:10.074Z,81.37
2018-08-24T19:00:37.807Z,81.27
2018-08-24T19:03:05.722Z,81.44
2018-08-24T19:05:34.820Z,81.56
2018-08-24T19:08:08.743Z,81.42
2018-08-24T19:10:43.590Z,80.92
2018-08-24T19:13:14.326Z,81.07
2018-08-24T19:15:42.220Z,82.22
2018-08-24T19:18:15.673Z,83.27
2018-08-24T19:20:48.892Z,81.74
2018-08-24T19:23:16.891Z,83.41
2018-08-24T19:25:44.583Z,81.88
2018-08-24T19:28:18.061Z,82.70
2018-08-24T19:30:45.784Z,81.84
2018-08-24T19:33:13.518Z,82.67
2018-08-24T19:35:41.411Z,82.78
2018-08-24T19:38:09.106Z,83.10
2018-08-24T19:40:42.580Z,83.01
2018-08-24T19:43:10.277Z,84.74
2018-08-24T19:45:37.970Z,84.77
2018-08-24T19:48:11.289Z,84.43
2018-08-24T19:50:39.017Z,82.95
2018-08-24T19:53:06.715Z,84.37
2018-08-24T19:55:34.414Z,83.12
2018-08-24T19:58:07.769Z,82.88
2018-08-24T20:00:35.657Z,82.68
2018-08-24T20:03:03.332Z,82.69
2018-08-24T20:05:31.070Z,82.05
2018-08-24T20:08:04.345Z,81.63
2018-08-24T20:10:32.086Z,81.40
2018-08-24T20:12:59.868Z,81.07
2018-08-24T20:15:33.149Z,81.36
2018-08-24T20:18:00.843Z,82.18
2018-08-24T20:20:28.543Z,81.63
2018-08-24T20:22:56.213Z,82.67
2018-08-24T20:25:23.902Z,83.11
2018-08-24T20:27:51.609Z,82.26
2018-08-24T20:30:19.324Z,81.78
2018-08-24T20:32:47.018Z,81.34
2018-08-24T20:35:14.702Z,83.10
2018-08-24T20:37:42.566Z,81.88
2018-08-24T20:40:10.288Z,82.28
2018-08-24T20:42:37.982Z,81.76
2018-08-24T20:45:05.734Z,81.47
2018-08-24T20:47:33.429Z,80.90
2018-08-24T20:50:01.126Z,82.34
2018-08-24T20:52:28.842Z,82.70
2018-08-24T20:54:56.509Z,83.20
2018-08-24T20:57:24.182Z,83.31
2018-08-24T20:59:51.863Z,82.10
2018-08-24T21:02:19.560Z,82.37
2018-08-24T21:04:47.257Z,82.91
2018-08-24T21:07:14.944Z,82.22
2018-08-24T21:09:42.706Z,81.61
2018-08-24T21:12:10.402Z,81.33
2018-08-24T21:14:38.369Z,84.13
2018-08-24T21:17:06.081Z,83.00
2018-08-24T21:19:33.798Z,82.17
2018-08-24T21:22:01.494Z,81.68
2018-08-24T21:24:29.218Z,81.83
2018-08-24T21:26:56.986Z,82.08
2018-08-24T21:29:24.669Z,82.87
2018-08-24T21:31:52.348Z,81.74
2018-08-24T21:34:20.023Z,81.76
2018-08-24T21:36:47.712Z,81.83
2018-08-24T21:39:15.411Z,82.60
2018-08-24T21:41:43.110Z,81.76
2018-08-24T21:44:10.790Z,81.68
2018-08-24T21:46:38.490Z,82.09
2018-08-24T21:49:06.350Z,82.60
2018-08-24T21:51:34.335Z,84.23
2018-08-24T21:54:02.066Z,84.48
2018-08-24T21:56:29.770Z,82.90
2018-08-24T21:58:57.498Z,82.09
2018-08-24T22:01:25.173Z,81.93
2018-08-24T22:03:52.881Z,81.64
2018-08-24T22:06:20.583Z,81.51
2018-08-24T22:08:48.277Z,82.07
2018-08-24T22:11:16.076Z,83.10
2018-08-24T22:13:43.784Z,82.48
2018-08-24T22:16:11.464Z,82.10
2018-08-24T22:18:39.167Z,81.97
2018-08-24T22:21:07.170Z,81.65
2018-08-24T22:23:34.883Z,81.77
2018-08-24T22:26:02.629Z,81.57
2018-08-24T22:28:30.347Z,81.74
2018-08-24T22:30:58.043Z,82.16
2018-08-24T22:33:25.759Z,82.58
2018-08-24T22:35:53.450Z,82.22
2018-08-24T22:38:21.152Z,82.08
2018-08-24T22:40:48.847Z,82.29
2018-08-24T22:43:22.044Z,82.00
2018-08-24T22:45:49.757Z,81.89
2018-08-24T22:48:17.449Z,82.59
2018-08-24T22:50:45.156Z,82.79
2018-08-24T22:53:12.859Z,84.24
2018-08-24T22:55:40.561Z,84.16
2018-08-24T22:58:08.544Z,83.42
2018-08-24T23:00:36.248Z,83.67
2018-08-24T23:03:03.985Z,84.16
2018-08-24T23:05:31.688Z,84.48
2018-08-24T23:07:59.391Z,83.60
2018-08-24T23:10:27.087Z,83.50
2018-08-24T23:12:54.784Z,83.26
2018-08-24T23:15:22.496Z,83.50
2018-08-24T23:17:50.201Z,83.00
2018-08-24T23:20:17.910Z,82.38
2018-08-24T23:22:45.621Z,81.80
2018-08-24T23:25:13.330Z,82.00
2018-08-24T23:27:41.018Z,81.91
2018-08-24T23:30:08.797Z,81.94
2018-08-24T23:32:36.533Z,81.76
2018-08-24T23:35:04.268Z,81.85
2018-08-24T23:37:32.006Z,81.85
2018-08-24T23:39:59.711Z,81.92
2018-08-24T23:42:27.420Z,82.13
2018-08-24T23:44:55.142Z,82.22
2018-08-24T23:47:22.842Z,81.85
2018-08-24T23:49:50.569Z,82.32
2018-08-24T23:52:18.256Z,82.09
2018-08-24T23:54:45.963Z,81.83
2018-08-24T23:57:13.680Z,81.76
2018-08-24T23:59:41.373Z,81.72
